CheckWX is a tool to help pilots better visualize weather data.  It is not intended as a substitute for an official pre-flight weather briefing.

08:43:42 UTC

LDRI TAF
Rijeka Airport
Rijeka, Croatia
TAF LDRI 241125Z 2412/2512 05012KT 9999 FEW045 TX23/2413Z TN13/2500Z PROB40 TEMPO 2412/2415 VRB10KT BECMG 2413/2415 06006KT TEMPO 2420/2506 06012KT PROB30 TEMPO 2510/2512 30008KT FEW040TCU

May-24@
12:00 UTC

May-24 @ 12:00 UTC

May-24@
13:00 UTC

May-24 @ 13:00 UTC

TAF LDRI 241125Z 2412/2512 05012KT 9999 FEW045 TX23/2413Z TN13/2500Z

Expired

Wind
  • 050° at 12 KTS
Cloud Levels
  • Few at 4,500' AGL

May-24@
12:00 UTC

May-24 @ 12:00 UTC

May-24@
15:00 UTC

May-24 @ 15:00 UTC

PROB40 TEMPO 2412/2415 VRB10KT

Expired

Wind
  • Variable at 10 KTS
Cloud Levels

May-24@
13:00 UTC

May-24 @ 13:00 UTC

May-25@
12:00 UTC

May-25 @ 12:00 UTC

BECMG 2413/2415 06006KT

Becoming

Becoming Conditions expected by Sun, May 24, 2020 @ 15:00 UTC

Wind
  • 060° at 6 KTS
Cloud Levels
  • Few at 4,500' AGL

May-24@
20:00 UTC

May-24 @ 20:00 UTC

May-25@
06:00 UTC

May-25 @ 06:00 UTC

TEMPO 2420/2506 06012KT

Expired

Wind
  • 060° at 12 KTS
Cloud Levels

May-25@
10:00 UTC

May-25 @ 10:00 UTC

May-25@
12:00 UTC

May-25 @ 12:00 UTC

PROB30 TEMPO 2510/2512 30008KT FEW040TCU

Temporary - 30% Likelihood

Temporary - 30% Likelihood during this time.

Wind
  • 300° at 8 KTS
Cloud Levels
  • Few at 4,000' AGL